createdAt,value
2023-05-22T00:01:02.320Z,12.27
2023-05-22T00:02:05.282Z,12.25
2023-05-22T00:03:08.660Z,12.26
2023-05-22T00:04:13.472Z,12.25
2023-05-22T00:05:18.524Z,12.22
2023-05-22T00:06:22.357Z,12.21
2023-05-22T00:07:27.512Z,12.23
2023-05-22T00:08:31.154Z,12.19
2023-05-22T00:09:34.045Z,12.19
2023-05-22T00:10:37.351Z,12.16
2023-05-22T00:11:40.446Z,12.16
2023-05-22T00:12:43.320Z,12.16
2023-05-22T00:13:46.591Z,12.17
2023-05-22T00:14:49.596Z,12.15
2023-05-22T00:15:53.382Z,12.20
2023-05-22T00:16:56.496Z,12.17
2023-05-22T00:17:59.996Z,12.17
2023-05-22T00:19:03.850Z,12.16
2023-05-22T00:20:10.786Z,12.14
2023-05-22T00:21:13.718Z,12.14
2023-05-22T00:22:17.053Z,12.19
2023-05-22T00:23:22.093Z,12.14
2023-05-22T00:24:25.020Z,12.14
2023-05-22T00:25:27.917Z,12.19
2023-05-22T00:26:30.837Z,12.16
2023-05-22T00:27:34.182Z,12.16
2023-05-22T00:28:37.337Z,12.14
2023-05-22T00:29:40.241Z,12.15
2023-05-22T00:30:43.171Z,12.16
2023-05-22T00:31:46.155Z,12.13
2023-05-22T00:32:49.106Z,12.12
2023-05-22T00:33:52.292Z,12.10
2023-05-22T00:34:55.213Z,12.09
2023-05-22T00:35:58.248Z,12.10
2023-05-22T00:37:01.344Z,12.07
2023-05-22T00:38:07.611Z,12.05
2023-05-22T00:39:11.406Z,12.01
2023-05-22T00:40:15.911Z,12.01
2023-05-22T00:41:19.074Z,12.01
2023-05-22T00:42:23.045Z,11.98
2023-05-22T00:43:26.316Z,11.95
2023-05-22T00:44:29.887Z,11.89
2023-05-22T00:45:33.132Z,11.87
2023-05-22T00:46:36.692Z,11.86
2023-05-22T00:47:41.843Z,11.82
2023-05-22T00:48:45.308Z,11.78
2023-05-22T00:49:48.488Z,11.78
2023-05-22T00:50:53.900Z,11.77
2023-05-22T00:51:57.216Z,11.72
2023-05-22T00:53:00.223Z,11.71
2023-05-22T00:54:05.050Z,11.70
2023-05-22T00:55:08.970Z,11.70
2023-05-22T00:56:13.217Z,11.72
2023-05-22T00:57:17.415Z,11.70
2023-05-22T00:58:21.950Z,11.69
2023-05-22T00:59:25.063Z,11.65
2023-05-22T01:00:28.247Z,11.65
2023-05-22T01:01:33.825Z,11.65
2023-05-22T01:02:37.380Z,11.62
2023-05-22T01:03:45.873Z,11.63
2023-05-22T01:04:49.973Z,11.61
2023-05-22T01:05:53.883Z,11.63
2023-05-22T01:06:56.829Z,11.61
2023-05-22T01:07:59.869Z,11.59
2023-05-22T01:09:04.223Z,11.59
2023-05-22T01:10:07.937Z,11.55
2023-05-22T01:11:22.292Z,11.54
2023-05-22T01:12:28.205Z,11.51
2023-05-22T01:13:50.718Z,11.52
2023-05-22T01:14:57.670Z,11.47
2023-05-22T01:16:05.917Z,11.44
2023-05-22T01:17:35.297Z,11.42
2023-05-22T01:19:10.718Z,11.40
2023-05-22T01:20:22.453Z,11.39
2023-05-22T01:21:37.276Z,11.37
2023-05-22T01:22:50.100Z,11.35
2023-05-22T01:24:37.323Z,11.35
2023-05-22T01:26:14.241Z,11.33
2023-05-22T01:27:26.372Z,11.32
2023-05-22T01:28:41.324Z,11.31
2023-05-22T01:29:54.909Z,11.32
2023-05-22T01:31:01.318Z,11.33
2023-05-22T01:32:05.864Z,11.31
2023-05-22T01:33:10.035Z,11.34
2023-05-22T01:34:14.693Z,11.32
2023-05-22T01:35:21.540Z,11.32
2023-05-22T01:36:31.069Z,11.30
2023-05-22T01:37:37.254Z,11.29
2023-05-22T01:38:43.184Z,11.30
2023-05-22T01:39:47.007Z,11.30
2023-05-22T01:40:51.235Z,11.27
2023-05-22T01:41:54.125Z,11.24
2023-05-22T01:42:57.551Z,11.23
2023-05-22T01:44:03.567Z,11.21
2023-05-22T01:45:10.335Z,11.22
2023-05-22T01:46:14.370Z,11.20
2023-05-22T01:47:18.221Z,11.17
2023-05-22T01:48:21.180Z,11.15
2023-05-22T01:49:24.195Z,11.14
2023-05-22T01:50:28.025Z,11.13
2023-05-22T01:51:49.201Z,11.11
2023-05-22T01:53:16.580Z,11.08
2023-05-22T01:54:28.387Z,11.06
2023-05-22T01:55:46.287Z,11.04
2023-05-22T01:57:07.534Z,11.03
2023-05-22T01:58:43.085Z,11.02
2023-05-22T01:59:54.595Z,11.02
2023-05-22T02:01:01.412Z,11.03
2023-05-22T02:02:10.730Z,11.05
2023-05-22T02:03:17.122Z,11.03
2023-05-22T02:04:22.935Z,11.08
2023-05-22T02:05:27.794Z,11.08
2023-05-22T02:06:33.406Z,11.09
2023-05-22T02:07:39.534Z,11.07
2023-05-22T02:08:43.293Z,11.06
2023-05-22T02:09:47.733Z,11.07
2023-05-22T02:10:52.387Z,11.06
2023-05-22T02:11:59.913Z,11.05
2023-05-22T02:13:04.462Z,11.05
2023-05-22T02:14:09.303Z,11.00
2023-05-22T02:15:12.391Z,11.00
2023-05-22T02:16:15.802Z,10.99
2023-05-22T02:17:18.943Z,10.97
2023-05-22T02:18:31.796Z,11.00
2023-05-22T02:19:37.443Z,10.95
2023-05-22T02:20:41.942Z,10.96
2023-05-22T02:21:44.873Z,10.96
2023-05-22T02:22:48.294Z,10.95
2023-05-22T02:23:51.255Z,10.95
2023-05-22T02:24:54.420Z,10.94
2023-05-22T02:25:57.603Z,10.93
2023-05-22T02:27:01.646Z,10.93
2023-05-22T02:28:04.895Z,10.93
2023-05-22T02:29:08.389Z,10.92
2023-05-22T02:30:12.672Z,10.94
2023-05-22T02:31:18.427Z,10.94
2023-05-22T02:32:21.446Z,10.92
2023-05-22T02:33:24.517Z,10.91
2023-05-22T02:34:27.737Z,10.90
2023-05-22T02:35:31.158Z,10.88
2023-05-22T02:36:34.119Z,10.87
2023-05-22T02:37:37.281Z,10.85
2023-05-22T02:38:40.545Z,10.85
2023-05-22T02:39:43.586Z,10.84
2023-05-22T02:40:47.236Z,10.82
2023-05-22T02:41:50.782Z,10.79
2023-05-22T02:42:53.698Z,10.78
2023-05-22T02:43:56.824Z,10.76
2023-05-22T02:44:59.935Z,10.74
2023-05-22T02:46:02.979Z,10.72
2023-05-22T02:47:06.717Z,10.72
2023-05-22T02:48:09.632Z,10.71
2023-05-22T02:49:12.719Z,10.70
2023-05-22T02:50:15.706Z,10.70
2023-05-22T02:51:18.667Z,10.68
2023-05-22T02:52:22.589Z,10.66
2023-05-22T02:53:25.540Z,10.63
2023-05-22T02:54:28.486Z,10.61
2023-05-22T02:55:31.476Z,10.61
2023-05-22T02:56:34.945Z,10.60
2023-05-22T02:57:38.076Z,10.61
2023-05-22T02:58:41.220Z,10.61
2023-05-22T02:59:44.602Z,10.61
2023-05-22T03:00:47.790Z,10.59
2023-05-22T03:01:51.026Z,10.62
2023-05-22T03:02:54.073Z,10.59
2023-05-22T03:03:57.545Z,10.61
2023-05-22T03:05:00.559Z,10.59
2023-05-22T03:06:04.396Z,10.60
2023-05-22T03:07:08.850Z,10.60
2023-05-22T03:08:12.134Z,10.59
2023-05-22T03:09:16.144Z,10.58
2023-05-22T03:10:19.143Z,10.60
2023-05-22T03:11:22.031Z,10.60
2023-05-22T03:12:25.036Z,10.60
2023-05-22T03:13:28.061Z,10.63
2023-05-22T03:14:31.119Z,10.63
2023-05-22T03:15:34.290Z,10.63
2023-05-22T03:16:44.424Z,10.62
2023-05-22T03:17:47.586Z,10.64
2023-05-22T03:18:51.770Z,10.67
2023-05-22T03:19:54.904Z,10.65
2023-05-22T03:20:57.876Z,10.67
2023-05-22T03:22:00.908Z,10.69
2023-05-22T03:23:05.451Z,10.69
2023-05-22T03:24:08.558Z,10.72
2023-05-22T03:25:11.783Z,10.75
2023-05-22T03:26:14.996Z,10.76
2023-05-22T03:27:18.020Z,10.77
2023-05-22T03:28:22.639Z,10.78
2023-05-22T03:29:25.602Z,10.80
2023-05-22T03:30:28.543Z,10.84
2023-05-22T03:31:57.699Z,10.83
2023-05-22T03:33:01.241Z,10.87
2023-05-22T03:34:05.917Z,10.87
2023-05-22T03:35:09.914Z,10.91
2023-05-22T03:36:12.917Z,10.91
2023-05-22T03:37:16.186Z,10.92
2023-05-22T03:38:19.567Z,10.94
2023-05-22T03:39:22.476Z,10.95
2023-05-22T03:40:45.746Z,10.95
2023-05-22T03:41:49.776Z,11.01
2023-05-22T03:42:52.787Z,11.00
2023-05-22T03:43:55.846Z,11.03
2023-05-22T03:44:59.159Z,11.06
2023-05-22T03:46:02.425Z,11.12
2023-05-22T03:47:05.609Z,11.11
2023-05-22T03:48:10.762Z,11.13
2023-05-22T03:49:13.855Z,11.18
2023-05-22T03:50:16.771Z,11.16
2023-05-22T03:51:21.698Z,11.18
2023-05-22T03:52:25.440Z,11.20
2023-05-22T03:53:29.640Z,11.22
2023-05-22T03:54:32.593Z,11.27
2023-05-22T03:55:35.854Z,11.26
2023-05-22T03:56:39.229Z,11.28
2023-05-22T03:57:42.290Z,11.31
2023-05-22T03:58:45.330Z,11.34
2023-05-22T03:59:48.560Z,11.35
2023-05-22T04:00:55.756Z,11.37
2023-05-22T04:02:01.284Z,11.42
2023-05-22T04:03:04.863Z,11.45
2023-05-22T04:04:09.666Z,11.45
2023-05-22T04:05:12.886Z,11.47
2023-05-22T04:06:16.000Z,11.50
2023-05-22T04:07:20.392Z,11.51
2023-05-22T04:08:23.372Z,11.54
2023-05-22T04:09:32.123Z,11.59
2023-05-22T04:10:37.625Z,11.58
2023-05-22T04:11:42.329Z,11.62
2023-05-22T04:12:45.446Z,11.67
2023-05-22T04:13:51.134Z,11.69
2023-05-22T04:14:54.434Z,11.70
2023-05-22T04:15:57.590Z,11.73
2023-05-22T04:17:00.703Z,11.76
2023-05-22T04:18:04.762Z,11.78
2023-05-22T04:19:09.730Z,11.84
2023-05-22T04:20:13.282Z,11.83
2023-05-22T04:21:17.640Z,11.92
2023-05-22T04:22:22.810Z,11.98
2023-05-22T04:23:25.893Z,12.00
2023-05-22T04:24:28.786Z,12.11
2023-05-22T04:25:34.384Z,12.14
2023-05-22T04:26:39.946Z,12.19
2023-05-22T04:27:44.019Z,12.26
2023-05-22T04:28:47.600Z,12.36
2023-05-22T04:29:51.232Z,12.40
2023-05-22T04:30:54.637Z,12.50
2023-05-22T04:31:57.692Z,12.52
2023-05-22T04:33:01.786Z,12.60
2023-05-22T04:34:07.367Z,12.61
2023-05-22T04:35:12.429Z,12.65
2023-05-22T04:36:15.854Z,12.69
2023-05-22T04:37:20.438Z,12.73
2023-05-22T04:38:26.469Z,12.81
2023-05-22T04:39:29.574Z,12.83
2023-05-22T04:40:34.457Z,12.86
2023-05-22T04:41:37.523Z,12.90
2023-05-22T04:42:41.289Z,13.00
2023-05-22T04:43:44.842Z,13.00
2023-05-22T04:44:48.462Z,13.03
2023-05-22T04:45:51.643Z,13.07
2023-05-22T04:46:57.463Z,13.12
2023-05-22T04:48:02.836Z,13.17
2023-05-22T04:49:09.157Z,13.29
2023-05-22T04:50:12.166Z,13.36
2023-05-22T04:51:15.423Z,13.41
2023-05-22T04:52:18.442Z,13.48
2023-05-22T04:53:21.459Z,13.54
2023-05-22T04:54:24.697Z,13.60
2023-05-22T04:55:27.572Z,13.64
2023-05-22T04:56:37.008Z,13.68
2023-05-22T04:57:41.424Z,13.74
2023-05-22T04:58:44.401Z,13.81
2023-05-22T04:59:48.019Z,13.86
2023-05-22T05:00:52.709Z,13.93
2023-05-22T05:01:55.773Z,13.95
2023-05-22T05:03:00.543Z,13.97
2023-05-22T05:04:04.154Z,14.03
2023-05-22T05:05:07.390Z,14.09
2023-05-22T05:06:12.595Z,14.15
2023-05-22T05:07:17.775Z,14.21
2023-05-22T05:08:20.954Z,14.28
2023-05-22T05:09:25.246Z,14.34
2023-05-22T05:10:28.273Z,14.42
2023-05-22T05:11:31.188Z,14.48
2023-05-22T05:12:34.134Z,14.55
2023-05-22T05:13:37.637Z,14.63
2023-05-22T05:14:40.589Z,14.71
2023-05-22T05:15:43.489Z,14.78
2023-05-22T05:16:51.757Z,14.85
2023-05-22T05:18:59.168Z,15.01
2023-05-22T05:20:02.540Z,15.07
2023-05-22T05:21:05.747Z,15.14
2023-05-22T05:22:08.677Z,15.21
2023-05-22T05:23:12.204Z,15.28
2023-05-22T05:24:16.969Z,15.34
2023-05-22T05:25:20.605Z,15.41
2023-05-22T05:26:24.318Z,15.46
2023-05-22T05:27:27.307Z,15.51
2023-05-22T05:28:30.427Z,15.56
2023-05-22T05:29:33.445Z,15.62
2023-05-22T05:30:41.933Z,15.70
2023-05-22T05:32:04.388Z,15.77
2023-05-22T05:33:26.850Z,15.84
2023-05-22T05:34:38.511Z,15.92
2023-05-22T05:35:52.864Z,15.99
2023-05-22T05:37:03.126Z,16.05
2023-05-22T05:38:07.046Z,16.06
2023-05-22T05:39:10.698Z,16.17
2023-05-22T05:40:14.401Z,16.24
2023-05-22T05:41:23.142Z,16.31
2023-05-22T05:42:33.152Z,16.38
2023-05-22T05:43:37.331Z,16.43
2023-05-22T05:44:43.194Z,16.49
2023-05-22T05:45:46.458Z,16.54
2023-05-22T05:46:49.948Z,16.58
2023-05-22T05:47:54.733Z,16.61
2023-05-22T05:48:58.561Z,16.64
2023-05-22T05:50:01.819Z,16.69
2023-05-22T05:51:06.936Z,16.75
2023-05-22T05:52:14.125Z,16.81
2023-05-22T05:53:17.310Z,16.87
2023-05-22T05:54:26.711Z,16.89
2023-05-22T05:55:34.553Z,17.00
2023-05-22T05:56:39.258Z,17.09
2023-05-22T05:57:42.470Z,17.15
2023-05-22T05:58:49.793Z,17.18
2023-05-22T06:00:22.681Z,17.23
2023-05-22T06:01:27.270Z,17.24
2023-05-22T06:02:31.363Z,17.24
2023-05-22T06:03:35.389Z,17.26
2023-05-22T06:04:48.761Z,17.34
2023-05-22T06:05:53.847Z,17.36
2023-05-22T06:07:01.999Z,17.37
2023-05-22T06:08:21.950Z,17.39
2023-05-22T06:09:24.996Z,17.45
2023-05-22T06:11:01.363Z,17.56
2023-05-22T06:12:13.918Z,17.68
2023-05-22T06:13:19.969Z,17.82
2023-05-22T06:14:22.920Z,17.95
2023-05-22T06:15:25.958Z,18.07
2023-05-22T06:16:29.932Z,18.20
2023-05-22T06:17:39.476Z,18.33
2023-05-22T06:18:42.565Z,18.47
2023-05-22T06:19:45.741Z,18.57
2023-05-22T06:20:49.168Z,18.61
2023-05-22T06:21:52.346Z,18.65
2023-05-22T06:22:56.543Z,18.74
2023-05-22T06:23:59.489Z,18.86
2023-05-22T06:25:05.243Z,18.99
2023-05-22T06:26:09.114Z,19.10
2023-05-22T06:27:12.425Z,19.19
2023-05-22T06:28:15.579Z,19.25
2023-05-22T06:29:18.864Z,19.37
2023-05-22T06:30:35.772Z,19.53
2023-05-22T06:31:43.968Z,19.70
2023-05-22T06:32:47.032Z,19.81
2023-05-22T06:33:52.089Z,19.87
2023-05-22T06:34:55.424Z,19.91
2023-05-22T06:35:58.732Z,20.08
2023-05-22T06:37:01.846Z,20.23
2023-05-22T06:38:07.845Z,20.29
2023-05-22T06:39:11.168Z,20.41
2023-05-22T06:40:32.492Z,20.57
2023-05-22T06:41:48.871Z,20.69
2023-05-22T06:42:52.770Z,20.86
2023-05-22T06:44:14.521Z,21.05
2023-05-22T06:45:20.056Z,21.15
2023-05-22T06:46:56.324Z,21.34
2023-05-22T06:48:01.211Z,21.48
2023-05-22T06:49:04.557Z,21.59
2023-05-22T06:50:15.254Z,21.64
2023-05-22T06:51:18.493Z,21.75
2023-05-22T06:52:24.790Z,21.88
2023-05-22T06:53:27.795Z,22.10
2023-05-22T06:54:31.048Z,22.12
2023-05-22T06:55:34.310Z,22.18
2023-05-22T06:56:42.526Z,22.34
2023-05-22T06:57:51.048Z,22.49
2023-05-22T06:58:54.226Z,22.74
2023-05-22T06:59:59.318Z,22.92
2023-05-22T07:01:23.338Z,23.17
2023-05-22T07:02:36.431Z,23.41
2023-05-22T07:04:05.199Z,23.53
2023-05-22T07:05:11.840Z,23.59
2023-05-22T07:06:25.272Z,23.64
2023-05-22T07:07:28.224Z,23.70
2023-05-22T07:08:31.287Z,23.71
2023-05-22T07:09:35.185Z,23.70
2023-05-22T07:10:39.376Z,23.74
2023-05-22T07:11:44.052Z,23.78
2023-05-22T07:12:48.124Z,23.74
2023-05-22T07:13:51.248Z,23.80
2023-05-22T07:14:54.908Z,23.86
2023-05-22T07:15:59.160Z,23.92
2023-05-22T07:17:02.216Z,23.97
2023-05-22T07:18:10.448Z,23.98
2023-05-22T07:19:16.001Z,23.97
2023-05-22T07:20:18.987Z,24.14
2023-05-22T07:21:38.312Z,24.30
2023-05-22T07:22:41.359Z,24.38
2023-05-22T07:23:44.292Z,24.40
2023-05-22T07:24:47.672Z,24.35
2023-05-22T07:25:52.127Z,24.39
2023-05-22T07:26:56.846Z,24.41
2023-05-22T07:28:02.268Z,24.43
2023-05-22T07:29:06.206Z,24.47
2023-05-22T07:30:10.229Z,24.57
2023-05-22T07:31:13.406Z,24.71
2023-05-22T07:32:16.441Z,24.82
2023-05-22T07:33:19.666Z,24.96
2023-05-22T07:34:23.009Z,25.12
2023-05-22T07:35:26.153Z,25.20
2023-05-22T07:36:29.407Z,25.23
2023-05-22T07:37:33.146Z,25.26
2023-05-22T07:38:36.364Z,25.36
2023-05-22T07:39:41.423Z,25.43
2023-05-22T07:40:47.287Z,25.48
2023-05-22T07:41:50.810Z,25.45
2023-05-22T07:42:54.164Z,25.47
2023-05-22T07:43:57.149Z,25.41
2023-05-22T07:45:03.886Z,25.34
2023-05-22T07:46:06.932Z,25.24
2023-05-22T07:47:14.549Z,25.07
2023-05-22T07:48:17.853Z,24.97
2023-05-22T07:49:23.723Z,24.93
2023-05-22T07:50:27.100Z,24.90
2023-05-22T07:51:30.104Z,24.90
2023-05-22T07:52:33.206Z,24.94
2023-05-22T07:53:37.876Z,24.96
2023-05-22T07:54:45.240Z,24.95
2023-05-22T07:55:49.284Z,24.92
2023-05-22T07:56:52.976Z,24.92
2023-05-22T07:57:57.551Z,24.98
2023-05-22T07:59:05.820Z,25.12
2023-05-22T08:00:10.132Z,25.18
2023-05-22T08:01:18.766Z,25.21
2023-05-22T08:02:22.677Z,25.27
2023-05-22T08:03:26.772Z,25.33
2023-05-22T08:04:30.324Z,25.36
2023-05-22T08:05:33.405Z,25.36
2023-05-22T08:06:36.559Z,25.36
2023-05-22T08:07:39.650Z,25.38
2023-05-22T08:08:42.869Z,25.37
2023-05-22T08:09:46.934Z,25.31
2023-05-22T08:11:03.232Z,25.35
2023-05-22T08:12:08.021Z,25.48
2023-05-22T08:13:12.512Z,25.50
2023-05-22T08:14:15.584Z,25.56
2023-05-22T08:15:18.547Z,25.71
2023-05-22T08:16:21.645Z,25.88
2023-05-22T08:17:24.613Z,25.90
2023-05-22T08:18:29.419Z,25.86
2023-05-22T08:19:33.473Z,25.88
2023-05-22T08:20:38.466Z,25.99
2023-05-22T08:21:41.797Z,26.04
2023-05-22T08:22:44.791Z,26.12
2023-05-22T08:23:47.663Z,26.20
2023-05-22T08:24:50.591Z,26.22
2023-05-22T08:25:53.628Z,26.13
2023-05-22T08:27:01.023Z,26.13
2023-05-22T08:28:04.232Z,26.24
2023-05-22T08:29:07.440Z,26.37
2023-05-22T08:30:10.555Z,26.51
2023-05-22T08:31:14.978Z,26.60
2023-05-22T08:32:18.630Z,26.59
2023-05-22T08:33:21.589Z,26.60
2023-05-22T08:34:25.232Z,26.60
2023-05-22T08:35:28.275Z,26.63
2023-05-22T08:36:34.068Z,26.67
2023-05-22T08:37:37.401Z,26.64
2023-05-22T08:38:41.443Z,26.60
2023-05-22T08:39:44.365Z,26.43
2023-05-22T08:40:51.485Z,26.37
2023-05-22T08:41:55.006Z,26.39
2023-05-22T08:42:58.572Z,26.40
2023-05-22T08:44:01.688Z,26.46
2023-05-22T08:45:07.217Z,26.53
2023-05-22T08:46:10.978Z,26.60
2023-05-22T08:47:15.410Z,26.61
2023-05-22T08:48:20.349Z,26.58
2023-05-22T08:49:24.359Z,26.53
2023-05-22T08:50:27.569Z,26.47
2023-05-22T08:51:35.833Z,26.46
2023-05-22T08:52:50.706Z,26.50
2023-05-22T08:53:56.826Z,26.53
2023-05-22T08:55:03.085Z,26.43
2023-05-22T08:56:07.285Z,26.37
2023-05-22T08:57:10.738Z,26.34
2023-05-22T08:58:14.477Z,26.21
2023-05-22T08:59:18.153Z,26.16
2023-05-22T09:00:21.702Z,26.21
2023-05-22T09:01:24.908Z,26.31
2023-05-22T09:02:28.481Z,26.41
2023-05-22T09:03:33.320Z,26.54
2023-05-22T09:04:36.447Z,26.65
2023-05-22T09:05:40.509Z,26.73
2023-05-22T09:06:43.527Z,26.66
2023-05-22T09:07:48.942Z,26.61
2023-05-22T09:08:52.219Z,26.65
2023-05-22T09:09:55.921Z,26.73
2023-05-22T09:10:59.186Z,26.82
2023-05-22T09:12:02.666Z,26.96
2023-05-22T09:13:09.588Z,27.10
2023-05-22T09:14:12.822Z,27.17
2023-05-22T09:15:16.578Z,27.11
2023-05-22T09:16:20.775Z,27.09
2023-05-22T09:17:24.135Z,27.14
2023-05-22T09:18:29.261Z,27.35
2023-05-22T09:19:32.804Z,27.40
2023-05-22T09:20:39.253Z,27.33
2023-05-22T09:21:43.102Z,27.24
2023-05-22T09:22:47.439Z,27.12
2023-05-22T09:23:51.114Z,26.98
2023-05-22T09:24:54.541Z,26.82
2023-05-22T09:25:59.418Z,26.67
2023-05-22T09:27:04.311Z,26.50
2023-05-22T09:28:07.596Z,26.41
2023-05-22T09:29:10.676Z,26.35
2023-05-22T09:30:20.868Z,26.26
2023-05-22T09:31:24.006Z,26.28
2023-05-22T09:32:29.926Z,26.25
2023-05-22T09:33:33.353Z,26.23
2023-05-22T09:34:36.357Z,26.18
2023-05-22T09:35:39.704Z,26.22
2023-05-22T09:36:42.928Z,26.27
2023-05-22T09:37:45.957Z,26.24
2023-05-22T09:38:49.295Z,26.14
2023-05-22T09:39:54.590Z,26.02
2023-05-22T09:40:57.703Z,25.96
2023-05-22T09:42:01.640Z,25.93
2023-05-22T09:43:18.049Z,25.88
2023-05-22T09:44:25.749Z,25.78
2023-05-22T09:45:28.811Z,25.64
2023-05-22T09:46:38.955Z,25.55
2023-05-22T09:47:42.259Z,25.52
2023-05-22T09:48:51.854Z,25.43
2023-05-22T09:49:58.678Z,25.28
2023-05-22T09:51:03.612Z,25.19
2023-05-22T09:52:09.379Z,25.11
2023-05-22T09:53:14.390Z,25.07
2023-05-22T09:54:20.207Z,25.07
2023-05-22T09:55:23.983Z,25.09
2023-05-22T09:56:39.199Z,25.05
2023-05-22T09:57:46.794Z,24.95
2023-05-22T09:58:52.650Z,24.87
2023-05-22T09:59:58.566Z,24.82
2023-05-22T10:01:03.410Z,24.88
2023-05-22T10:02:07.030Z,24.87
2023-05-22T10:03:16.030Z,24.97
2023-05-22T10:04:22.022Z,25.14
2023-05-22T10:05:31.580Z,25.32
2023-05-22T10:06:37.219Z,25.52
2023-05-22T10:07:49.987Z,25.72
2023-05-22T10:09:05.512Z,25.83
2023-05-22T10:10:12.246Z,25.82
2023-05-22T10:11:18.021Z,25.79
2023-05-22T10:12:25.292Z,25.78
2023-05-22T10:13:29.340Z,25.76
2023-05-22T10:14:32.840Z,25.77
2023-05-22T10:15:35.966Z,25.77
2023-05-22T10:16:39.892Z,25.76
2023-05-22T10:17:44.846Z,25.71
2023-05-22T10:18:49.205Z,25.61
2023-05-22T10:19:54.320Z,25.53
2023-05-22T10:20:59.778Z,25.36
2023-05-22T10:22:03.958Z,25.23
2023-05-22T10:23:08.206Z,25.17
2023-05-22T10:24:12.548Z,25.12
2023-05-22T10:25:23.805Z,25.11
2023-05-22T10:26:27.490Z,25.13
2023-05-22T10:27:30.530Z,25.12
2023-05-22T10:28:40.808Z,25.08
2023-05-22T10:30:04.037Z,25.03
2023-05-22T10:31:23.964Z,24.95
2023-05-22T10:33:06.288Z,24.84
2023-05-22T10:34:17.287Z,24.81
2023-05-22T10:35:25.398Z,24.83
2023-05-22T10:36:48.221Z,24.89
2023-05-22T10:37:55.064Z,25.00
2023-05-22T10:39:23.311Z,24.98
2023-05-22T10:40:32.765Z,25.03
2023-05-22T10:41:35.815Z,25.03
2023-05-22T10:42:38.969Z,25.07
2023-05-22T10:43:45.392Z,25.07
2023-05-22T10:44:49.152Z,25.08
2023-05-22T10:46:05.677Z,25.02
2023-05-22T10:47:11.551Z,24.97
2023-05-22T10:48:16.094Z,24.92
2023-05-22T10:49:26.234Z,24.85
2023-05-22T10:50:29.390Z,24.82
2023-05-22T10:51:34.384Z,24.75
2023-05-22T10:52:38.433Z,24.74
2023-05-22T10:53:45.296Z,24.76
2023-05-22T10:54:53.778Z,24.80
2023-05-22T10:55:57.949Z,24.81
2023-05-22T10:57:17.529Z,24.89
2023-05-22T10:58:37.542Z,24.99
2023-05-22T10:59:40.617Z,25.18
2023-05-22T11:00:44.620Z,25.34
2023-05-22T11:01:47.570Z,25.49
2023-05-22T11:03:17.162Z,25.72
2023-05-22T11:04:25.880Z,25.90
2023-05-22T11:05:30.209Z,26.03
2023-05-22T11:06:43.246Z,26.10
2023-05-22T11:07:46.223Z,26.15
2023-05-22T11:08:49.925Z,26.23
2023-05-22T11:10:00.506Z,26.33
2023-05-22T11:11:12.833Z,26.43
2023-05-22T11:12:31.234Z,26.50
2023-05-22T11:13:36.948Z,26.67
2023-05-22T11:14:39.976Z,26.82
2023-05-22T11:15:46.117Z,26.94
2023-05-22T11:16:49.120Z,26.96
2023-05-22T11:17:52.399Z,26.96
2023-05-22T11:19:21.857Z,26.99
2023-05-22T11:20:26.794Z,27.06
2023-05-22T11:21:31.198Z,27.17
2023-05-22T11:22:37.837Z,27.29
2023-05-22T11:23:41.732Z,27.38
2023-05-22T11:24:44.949Z,27.48
2023-05-22T11:25:47.868Z,27.60
2023-05-22T11:27:20.838Z,27.72
2023-05-22T11:28:24.364Z,27.88
2023-05-22T11:29:29.446Z,27.97
2023-05-22T11:30:33.918Z,27.96
2023-05-22T11:31:37.880Z,27.95
2023-05-22T11:32:46.010Z,27.94
2023-05-22T11:33:49.221Z,27.92
2023-05-22T11:34:53.386Z,27.96
2023-05-22T11:35:57.343Z,28.05
2023-05-22T11:37:00.303Z,28.14
2023-05-22T11:38:07.275Z,28.21
2023-05-22T11:39:15.024Z,28.26
2023-05-22T11:40:24.628Z,28.30
2023-05-22T11:41:33.936Z,28.39
2023-05-22T11:42:37.854Z,28.44
2023-05-22T11:43:43.209Z,28.53
2023-05-22T11:44:46.355Z,28.66
2023-05-22T11:45:49.368Z,28.70
2023-05-22T11:46:52.685Z,28.77
2023-05-22T11:47:56.013Z,28.80
2023-05-22T11:48:59.246Z,28.83
2023-05-22T11:50:02.396Z,28.79
2023-05-22T11:51:05.497Z,28.72
2023-05-22T11:52:12.118Z,28.67
2023-05-22T11:53:15.092Z,28.59
2023-05-22T11:54:18.767Z,28.50
2023-05-22T11:55:23.438Z,28.50
2023-05-22T11:56:26.543Z,28.54
2023-05-22T11:57:29.557Z,28.63
2023-05-22T11:58:33.405Z,28.71
2023-05-22T11:59:36.386Z,28.76
2023-05-22T12:00:39.950Z,28.71
2023-05-22T12:01:43.175Z,28.68
2023-05-22T12:02:49.351Z,28.65
2023-05-22T12:03:52.440Z,28.62
2023-05-22T12:04:56.442Z,28.52
2023-05-22T12:05:59.480Z,28.41
2023-05-22T12:07:02.503Z,28.41
2023-05-22T12:08:05.679Z,28.53
2023-05-22T12:09:09.166Z,28.69
2023-05-22T12:10:14.674Z,28.77
2023-05-22T12:11:18.017Z,28.78
2023-05-22T12:12:22.470Z,28.71
2023-05-22T12:13:30.058Z,28.58
2023-05-22T12:14:32.997Z,28.43
2023-05-22T12:15:35.872Z,28.33
2023-05-22T12:16:39.500Z,28.29
2023-05-22T12:17:43.133Z,28.27
2023-05-22T12:18:46.356Z,28.21
2023-05-22T12:19:49.313Z,28.08
2023-05-22T12:20:54.897Z,27.99
2023-05-22T12:21:58.939Z,28.00
2023-05-22T12:23:01.962Z,28.02
2023-05-22T12:24:06.635Z,28.05
2023-05-22T12:25:15.225Z,28.13
2023-05-22T12:26:20.317Z,28.27
2023-05-22T12:27:23.266Z,28.40
2023-05-22T12:28:27.292Z,28.47
2023-05-22T12:29:30.242Z,28.53
2023-05-22T12:30:42.712Z,28.58
2023-05-22T12:31:49.194Z,28.67
2023-05-22T12:32:52.246Z,28.78
2023-05-22T12:33:56.087Z,28.88
2023-05-22T12:35:00.015Z,28.97
2023-05-22T12:36:08.262Z,28.97
2023-05-22T12:37:38.180Z,28.98
2023-05-22T12:38:41.229Z,29.05
2023-05-22T12:39:59.944Z,29.07
2023-05-22T12:41:02.950Z,29.03
2023-05-22T12:42:06.206Z,28.99
2023-05-22T12:43:13.199Z,29.00
2023-05-22T12:44:18.557Z,28.97
2023-05-22T12:45:21.551Z,28.89
2023-05-22T12:46:24.451Z,28.87
2023-05-22T12:47:27.467Z,28.94
2023-05-22T12:48:30.646Z,29.03
2023-05-22T12:49:33.563Z,29.04
2023-05-22T12:50:36.532Z,28.96
2023-05-22T12:51:39.577Z,28.90
2023-05-22T12:52:42.531Z,28.91
2023-05-22T12:53:45.529Z,28.86
2023-05-22T12:54:48.477Z,28.76
2023-05-22T12:55:51.388Z,28.75
2023-05-22T12:56:54.267Z,28.74
2023-05-22T12:57:57.322Z,28.78
2023-05-22T12:59:00.778Z,28.86
2023-05-22T13:00:06.050Z,28.98
2023-05-22T13:01:09.521Z,29.08
2023-05-22T13:02:12.552Z,29.20
2023-05-22T13:03:15.993Z,29.25
2023-05-22T13:04:19.784Z,29.20
2023-05-22T13:05:22.981Z,29.13
2023-05-22T13:06:27.991Z,29.11
2023-05-22T13:07:32.685Z,29.08
2023-05-22T13:08:35.589Z,29.04
2023-05-22T13:09:38.675Z,28.92
2023-05-22T13:10:41.606Z,28.81
2023-05-22T13:11:44.626Z,28.80
2023-05-22T13:12:51.604Z,28.87
2023-05-22T13:13:54.735Z,28.98
2023-05-22T13:14:58.839Z,29.06
2023-05-22T13:16:01.780Z,29.09
2023-05-22T13:17:04.952Z,28.99
2023-05-22T13:18:08.291Z,28.91
2023-05-22T13:19:11.432Z,28.94
2023-05-22T13:20:14.389Z,28.95
2023-05-22T13:21:17.616Z,28.99
2023-05-22T13:22:20.865Z,28.98
2023-05-22T13:23:24.143Z,28.93
2023-05-22T13:24:27.005Z,28.82
2023-05-22T13:25:30.212Z,28.66
2023-05-22T13:26:33.292Z,28.53
2023-05-22T13:27:36.626Z,28.51
2023-05-22T13:28:39.482Z,28.55
2023-05-22T13:29:42.363Z,28.49
2023-05-22T13:30:45.326Z,28.39
2023-05-22T13:31:48.233Z,28.30
2023-05-22T13:32:51.956Z,28.20
2023-05-22T13:33:54.965Z,28.15
2023-05-22T13:34:58.402Z,28.09
2023-05-22T13:36:01.396Z,28.13
2023-05-22T13:37:04.519Z,28.05
2023-05-22T13:38:08.039Z,27.89
2023-05-22T13:39:10.985Z,27.79
2023-05-22T13:40:16.232Z,27.71
2023-05-22T13:41:19.582Z,27.68
2023-05-22T13:42:23.341Z,27.62
2023-05-22T13:43:26.263Z,27.59
2023-05-22T13:44:29.209Z,27.52
2023-05-22T13:45:32.508Z,27.46
2023-05-22T13:46:36.137Z,27.32
2023-05-22T13:47:39.645Z,27.23
2023-05-22T13:48:42.588Z,27.21
2023-05-22T13:49:46.010Z,27.22
2023-05-22T13:50:48.853Z,27.21
2023-05-22T13:51:51.855Z,27.19
2023-05-22T13:52:54.815Z,27.17
2023-05-22T13:53:57.846Z,27.15
2023-05-22T13:55:01.223Z,27.12
2023-05-22T13:56:04.704Z,27.04
2023-05-22T13:57:07.643Z,26.93
2023-05-22T13:58:10.807Z,26.87
2023-05-22T13:59:13.712Z,26.76
2023-05-22T14:00:17.113Z,26.65
2023-05-22T14:01:20.283Z,26.54
2023-05-22T14:02:23.232Z,26.40
2023-05-22T14:03:26.256Z,26.29
2023-05-22T14:04:29.663Z,26.18
2023-05-22T14:05:32.682Z,26.11
2023-05-22T14:06:35.695Z,26.03